Arago, OR

12:57 AM PDT on September 20, 2014 (GMT -0700)
Arago | Change Station
CLOSE
Current Station
Personal Weather Station
Location: Myrtle Point, OR
Elevation: 175 ft
Nearby Weather Stations

Elev 175 ft 43.09 °N, 124.20 °W | Updated 2 minutes ago

Clear
Clear
54.8 °F
Feels Like 54.8 °F
N
0.0
Wind Variable Wind from North
Gusts 0.0 mph

Today
High -- | Low -- °F
--% Chance of Precip.
Yesterday
High -- | Low -- °F
Precip. -- in
7:01 AM 7:17 PM
Waning Crescent, 14% visible
Pressure 29.99 in
Visibility 9.0 miles
Clouds Clear
Dew Point 53 °F
Humidity 95%
Rainfall 0.00 in
Snow Depth Not available.
UV 0 out of 12
Pollen 4.20 out of 12
Air Quality Not available.
Flu Activity Not available.
METAR KOTH 200735Z 34003KT 9SM CLR 14/14 A2999 RMK AO1

More Conditions Fewer Conditions

Pressure 29.99 in
Visibility 9.0 miles
Clouds Clear
Dew Point 53 °F
Humidity 95%
Rainfall 0.00 in
Snow Depth Not available.
UV 0 out of 12
Pollen 4.20 out of 12
Air Quality Not available.
Flu Activity Not available.
METAR KOTH 200735Z 34003KT 9SM CLR 14/14 A2999 RMK AO1

More Conditions Fewer Conditions

10-Day Weather Forecast

Almanac

Astronomy

Sep. 20, 2014 Rise Set
Actual Time 7:01 AM PDT 7:17 PM PDT
Civil Twilight 6:33 AM PDT 7:45 PM PDT
Nautical Twilight 5:59 AM PDT 8:19 PM PDT
Astronomical Twilight 5:25 AM PDT 8:53 PM PDT
Moon 3:42 AM PDT 5:27 PM PDT
Length of Visible Light 13h 12m
Length of Day
12h 15m
Tomorrow will be 2m 54s shorter.
Waning Crescent, 14% of the Moon is Illuminated
Today
Waning Crescent
Sep 24
New
Oct 1
First Quarter
Oct 8
Full
Oct 15
Last Quarter

Today's Extremes

State Highs State Lows

Community

WunderPhotos

Upload Photos

1,754,793 photos uploaded!

WunderBlogs® & News

Nearby

Snow Depth

Station Depth Elevation
Fourmile Lake 0 in 6000 ft
Silver Creek 0 in 5720 ft
Lucky Strike 2 in 5050 ft
Beaver Reservoir 0 in 5150 ft
Rock Springs 0 in 5550 ft

Earthquake Activity

City Distance Mag. Time & Date
No recent earthquake activity has been reported nearby.
Minimum magnitude displayed is 2.5.

Coastal Water Temperatures

Place Temperature
Port Orford, OR 54.0 °F
Charleston, OR 55.0 °F
South Beach, OR 55.9 °F

Nearby Weather Stations